Lander, WY

5:23 PM MDT on October 01, 2016 (GMT -0600)
Canyon Shadows subdivision | | Change Station

Elev 6063 ft 42.76 °N, 108.79 °W | Updated 3 minutes ago

Partly Cloudy
Partly Cloudy
70.2 °F
Feels Like 76 °F
N
6.0
Wind Variable Wind from South
Gusts 6.0 mph

Today
High -- | Low -- °F
--% Chance of Precip.
Yesterday
High -- | Low -- °F
Precip. -- in
Pressure 29.84 in
Visibility 10.0 miles
Clouds Few 9000 ft
Heat Index 76 °F
Dew Point 38 °F
Humidity 31%
Rainfall 0.00 in
Snow Depth Not available.
7:12 AM 6:54 PM
New Moon, 1% visible
METAR KRIW 012253Z AUTO 23004KT 10SM FEW090 23/03 A3000 RMK AO2 SLP105 T02330028
Pressure 29.84 in
Visibility 10.0 miles
Clouds Few 9000 ft
Heat Index 76 °F
Dew Point 38 °F
Humidity 31%
Rainfall 0.00 in
Snow Depth Not available.
7:12 AM 6:54 PM
New Moon, 1% visible
METAR KRIW 012253Z AUTO 23004KT 10SM FEW090 23/03 A3000 RMK AO2 SLP105 T02330028

10-Day Weather Forecast

Almanac

Astronomy

Oct. 01, 2016 Rise Set
Actual Time
Civil Twilight
Nautical Twilight
Astronomical Twilight
Moon
Length of Visible Light
Length of Day
Tomorrow will be .
, % of the Moon is Illuminated

Today's Extremes

State Highs State Lows

Community

WunderPhotos

Upload Photos

1,943,049 photos uploaded!

WunderBlog® & News

Nearby

Air Quality

  Air Quality AQ Index Pollutant
Not available.

Snow Depth

Station Depth Elevation

Earthquake Activity

City Distance Mag. Time & Date
Minimum magnitude displayed is 2.5.

Coastal Water Temperatures

Place Temperature

Stations

Nearby Weather Stations

Station Location Temp. Windchill Dew Point Humidity Wind Precip. Elev Updated Type
                   

Watches & Warnings

There are currently no watches in effect.